Terminal Aerodrome Forecast
Issued by NWS

Home | Current Version | Previous Version | Text Only | Print | Product List | Glossary Off
Versions: 1 2 3 4 5 6 7 8 9 10 11 12 13 14

000
FTUS43 KMPX 231722
TAFAXN
TAF
KAXN 231722Z 2318/2418 03012KT P6SM VCSH SCT020 BKN040 OVC080
      TEMPO 2318/2320 BKN020
     FM240200 01008KT P6SM BKN045
     FM240900 01005KT P6SM SCT035
     FM241600 07006KT P6SM SCT040=

USA.gov is the U.S. government's official web portal to all federal, state and local government web resources and services.